createdAt,value
2018-03-27T00:00:08.422Z,58.43
2018-03-27T00:02:36.016Z,65.97
2018-03-27T00:05:03.603Z,61.07
2018-03-27T00:07:31.078Z,72.83
2018-03-27T00:09:58.583Z,66.97
2018-03-27T00:12:26.072Z,77.77
2018-03-27T00:14:53.643Z,74.53
2018-03-27T00:17:21.972Z,74.20
2018-03-27T00:19:49.439Z,70.77
2018-03-27T00:22:16.924Z,70.33
2018-03-27T00:24:44.456Z,76.90
2018-03-27T00:27:11.936Z,64.57
2018-03-27T00:29:39.410Z,66.43
2018-03-27T00:32:07.104Z,63.37
2018-03-27T00:34:34.615Z,71.97
2018-03-27T00:37:02.510Z,63.03
2018-03-27T00:39:30.252Z,63.57
2018-03-27T00:41:57.805Z,65.10
2018-03-27T00:44:25.684Z,65.67
2018-03-27T00:46:53.185Z,80.20
2018-03-27T00:49:20.690Z,64.90
2018-03-27T00:51:48.198Z,68.80
2018-03-27T00:54:15.736Z,71.70
2018-03-27T00:56:43.178Z,60.07
2018-03-27T00:59:10.692Z,72.63
2018-03-27T01:01:38.223Z,66.17
2018-03-27T01:04:05.744Z,64.63
2018-03-27T01:06:34.003Z,60.23
2018-03-27T01:09:01.536Z,74.27
2018-03-27T01:11:29.503Z,64.03
2018-03-27T01:13:56.965Z,75.00
2018-03-27T01:16:24.457Z,59.90
2018-03-27T01:18:51.990Z,54.80
2018-03-27T01:21:19.488Z,63.50
2018-03-27T01:23:46.994Z,56.63
2018-03-27T01:26:14.510Z,60.07
2018-03-27T01:28:42.033Z,59.97
2018-03-27T01:31:09.499Z,54.20
2018-03-27T01:33:37.044Z,55.53
2018-03-27T01:36:04.526Z,57.43
2018-03-27T01:38:32.081Z,61.17
2018-03-27T01:40:59.580Z,60.37
2018-03-27T01:43:27.084Z,61.90
2018-03-27T01:45:54.689Z,68.27
2018-03-27T01:48:22.175Z,66.90
2018-03-27T01:50:49.771Z,60.87
2018-03-27T01:53:18.134Z,58.13
2018-03-27T01:55:45.643Z,63.67
2018-03-27T01:58:13.132Z,65.40
2018-03-27T02:00:40.608Z,66.90
2018-03-27T02:03:08.185Z,65.70
2018-03-27T02:05:35.643Z,64.80
2018-03-27T02:08:03.181Z,65.10
2018-03-27T02:10:30.846Z,68.23
2018-03-27T02:12:58.603Z,63.57
2018-03-27T02:15:26.086Z,64.20
2018-03-27T02:17:54.095Z,74.03
2018-03-27T02:20:21.805Z,56.93
2018-03-27T02:22:49.294Z,72.67
2018-03-27T02:25:16.816Z,70.87
2018-03-27T02:27:45.124Z,61.10
2018-03-27T02:30:12.689Z,56.37
2018-03-27T02:32:40.208Z,68.87
2018-03-27T02:35:09.472Z,58.20
2018-03-27T02:37:37.212Z,68.63
2018-03-27T02:40:04.691Z,61.10
2018-03-27T02:42:32.210Z,59.47
2018-03-27T02:45:00.513Z,60.43
2018-03-27T02:47:27.984Z,59.80
2018-03-27T02:49:55.689Z,55.43
2018-03-27T02:52:23.092Z,58.17
2018-03-27T02:54:50.679Z,59.20
2018-03-27T02:57:18.187Z,59.27
2018-03-27T02:59:45.671Z,48.87
2018-03-27T03:02:13.951Z,58.00
2018-03-27T03:04:42.964Z,49.53
2018-03-27T03:07:10.458Z,54.03
2018-03-27T03:09:37.960Z,47.87
2018-03-27T03:12:05.491Z,52.80
2018-03-27T03:14:32.974Z,51.93
2018-03-27T03:17:00.659Z,50.40
2018-03-27T03:19:28.999Z,52.10
2018-03-27T03:21:56.532Z,51.70
2018-03-27T03:24:24.094Z,54.87
2018-03-27T03:26:51.594Z,49.33
2018-03-27T03:29:19.208Z,51.90
2018-03-27T03:31:48.383Z,64.37
2018-03-27T03:34:15.934Z,46.90
2018-03-27T03:36:43.363Z,43.47
2018-03-27T03:39:10.843Z,55.17
2018-03-27T03:41:38.449Z,60.40
2018-03-27T03:44:06.114Z,77.37
2018-03-27T03:46:33.575Z,46.87
2018-03-27T03:49:01.115Z,56.40
2018-03-27T03:51:28.548Z,47.53
2018-03-27T03:53:56.098Z,48.53
2018-03-27T03:56:23.607Z,50.37
2018-03-27T03:58:51.149Z,43.70
2018-03-27T04:01:18.720Z,50.37
2018-03-27T04:03:46.978Z,52.23
2018-03-27T04:06:14.475Z,60.47
2018-03-27T04:08:41.963Z,50.77
2018-03-27T04:11:09.444Z,46.50
2018-03-27T04:13:37.714Z,54.57
2018-03-27T04:16:05.281Z,54.23
2018-03-27T04:18:33.549Z,51.33
2018-03-27T04:21:01.003Z,51.50
2018-03-27T04:23:28.566Z,52.57
2018-03-27T04:25:56.306Z,57.17
2018-03-27T04:28:23.838Z,54.70
2018-03-27T04:30:51.320Z,60.80
2018-03-27T04:33:18.832Z,63.83
2018-03-27T04:35:46.361Z,60.40
2018-03-27T04:38:13.795Z,57.57
2018-03-27T04:40:41.408Z,67.53
2018-03-27T04:43:09.261Z,69.10
2018-03-27T04:45:36.776Z,68.73
2018-03-27T04:48:04.317Z,72.37
2018-03-27T04:50:31.776Z,75.27
2018-03-27T04:52:59.280Z,68.33
2018-03-27T04:55:26.815Z,72.03
2018-03-27T04:57:54.498Z,74.50
2018-03-27T05:00:22.013Z,81.03
2018-03-27T05:02:49.592Z,71.20
2018-03-27T05:05:17.789Z,78.40
2018-03-27T05:07:46.046Z,74.57
2018-03-27T05:10:13.588Z,79.47
2018-03-27T05:12:41.823Z,76.13
2018-03-27T05:15:10.147Z,79.87
2018-03-27T05:17:37.901Z,80.80
2018-03-27T05:20:05.361Z,84.30
2018-03-27T05:22:32.927Z,95.60
2018-03-27T05:25:01.181Z,92.13
2018-03-27T05:27:29.476Z,100.33
2018-03-27T05:29:57.752Z,91.00
2018-03-27T05:32:25.244Z,101.63
2018-03-27T05:34:53.530Z,91.83
2018-03-27T05:37:21.129Z,91.07
2018-03-27T05:39:48.720Z,86.83
2018-03-27T05:42:16.907Z,96.57
2018-03-27T05:44:45.206Z,98.43
2018-03-27T05:47:12.862Z,89.17
2018-03-27T05:49:40.380Z,98.60
2018-03-27T05:52:07.907Z,90.60
2018-03-27T05:54:35.408Z,90.13
2018-03-27T05:57:02.906Z,90.30
2018-03-27T05:59:31.161Z,96.73
2018-03-27T06:01:59.347Z,102.80
2018-03-27T06:04:26.863Z,97.27
2018-03-27T06:06:54.415Z,106.03
2018-03-27T06:09:21.931Z,101.17
2018-03-27T06:11:49.434Z,93.07
2018-03-27T06:14:16.993Z,97.80
2018-03-27T06:16:44.700Z,114.83
2018-03-27T06:19:12.208Z,104.57
2018-03-27T06:21:39.765Z,100.57
2018-03-27T06:24:07.238Z,104.10
2018-03-27T06:26:35.511Z,104.50
2018-03-27T06:29:03.869Z,100.60
2018-03-27T06:31:31.438Z,106.17
2018-03-27T06:33:58.988Z,115.57
2018-03-27T06:36:26.502Z,130.30
2018-03-27T06:38:54.778Z,127.27
2018-03-27T06:41:22.494Z,128.77
2018-03-27T06:43:50.570Z,136.63
2018-03-27T06:46:18.127Z,135.80
2018-03-27T06:48:45.646Z,123.50
2018-03-27T06:51:13.196Z,138.33
2018-03-27T06:53:40.704Z,117.47
2018-03-27T06:56:08.238Z,131.80
2018-03-27T06:58:36.519Z,123.63
2018-03-27T07:01:04.855Z,144.93
2018-03-27T07:03:32.379Z,127.57
2018-03-27T07:05:59.876Z,124.47
2018-03-27T07:08:27.439Z,111.13
2018-03-27T07:10:54.999Z,138.60
2018-03-27T07:13:22.506Z,141.27
2018-03-27T07:15:50.144Z,141.53
2018-03-27T07:18:17.641Z,137.73
2018-03-27T07:20:45.936Z,129.80
2018-03-27T07:23:14.222Z,148.40
2018-03-27T07:25:42.318Z,156.73
2018-03-27T07:28:09.784Z,147.10
2018-03-27T07:30:37.325Z,143.20
2018-03-27T07:33:05.588Z,144.37
2018-03-27T07:35:33.099Z,158.50
2018-03-27T07:38:00.627Z,149.97
2018-03-27T07:40:28.147Z,159.13
2018-03-27T07:42:55.660Z,152.23
2018-03-27T07:45:23.883Z,145.20
2018-03-27T07:47:51.433Z,156.77
2018-03-27T07:50:19.683Z,136.63
2018-03-27T07:52:47.222Z,151.63
2018-03-27T07:55:14.719Z,149.33
2018-03-27T07:57:42.189Z,133.33
2018-03-27T08:00:09.730Z,142.20
2018-03-27T08:02:37.956Z,136.07
2018-03-27T08:05:05.481Z,125.50
2018-03-27T08:07:33.749Z,135.07
2018-03-27T08:10:02.107Z,128.00
2018-03-27T08:12:30.310Z,124.33
2018-03-27T08:14:58.584Z,114.40
2018-03-27T08:17:26.085Z,120.17
2018-03-27T08:19:53.683Z,109.03
2018-03-27T08:22:21.398Z,108.30
2018-03-27T08:24:49.343Z,103.00
2018-03-27T08:27:16.870Z,96.87
2018-03-27T08:29:44.767Z,113.50
2018-03-27T08:32:12.487Z,100.40
2018-03-27T08:34:39.986Z,95.43
2018-03-27T08:37:07.515Z,86.70
2018-03-27T08:39:34.991Z,93.57
2018-03-27T08:42:02.566Z,83.20
2018-03-27T08:44:30.041Z,80.70
2018-03-27T08:46:57.891Z,62.53
2018-03-27T08:49:25.325Z,55.13
2018-03-27T08:51:52.793Z,51.17
2018-03-27T08:54:20.344Z,56.67
2018-03-27T08:56:47.776Z,65.07
2018-03-27T08:59:15.291Z,60.47
2018-03-27T09:01:43.541Z,64.73
2018-03-27T09:04:11.849Z,60.37
2018-03-27T09:06:40.191Z,59.37
2018-03-27T09:09:07.626Z,63.30
2018-03-27T09:11:35.158Z,55.50
2018-03-27T09:14:02.625Z,54.30
2018-03-27T09:16:30.126Z,44.80
2018-03-27T09:18:57.671Z,46.57
2018-03-27T09:21:25.623Z,41.17
2018-03-27T09:23:53.197Z,43.43
2018-03-27T09:26:21.387Z,49.07
2018-03-27T09:28:48.911Z,42.60
2018-03-27T09:31:17.240Z,43.40
2018-03-27T09:33:44.735Z,37.03
2018-03-27T09:36:13.017Z,33.90
2018-03-27T09:38:41.302Z,35.83
2018-03-27T09:41:10.584Z,34.57
2018-03-27T09:43:38.103Z,30.50
2018-03-27T09:46:05.640Z,38.73
2018-03-27T09:48:33.424Z,31.10
2018-03-27T09:51:01.227Z,33.83
2018-03-27T09:53:28.714Z,30.17
2018-03-27T09:55:56.270Z,29.60
2018-03-27T09:58:23.782Z,25.63
2018-03-27T10:00:52.327Z,27.50
2018-03-27T10:03:20.625Z,21.77
2018-03-27T10:05:48.072Z,19.93
2018-03-27T10:08:16.133Z,16.73
2018-03-27T10:10:43.647Z,15.03
2018-03-27T10:13:11.106Z,14.37
2018-03-27T10:15:39.436Z,13.23
2018-03-27T10:18:06.883Z,7.73
2018-03-27T10:20:34.419Z,9.40
2018-03-27T10:23:01.915Z,9.37
2018-03-27T10:25:29.441Z,8.87
2018-03-27T10:27:56.912Z,10.87
2018-03-27T10:30:24.388Z,11.63
2018-03-27T10:32:52.600Z,12.70
2018-03-27T10:35:20.359Z,14.03
2018-03-27T10:37:47.839Z,14.07
2018-03-27T10:40:15.328Z,15.37
2018-03-27T10:42:44.598Z,18.60
2018-03-27T10:45:12.130Z,14.53
2018-03-27T10:47:39.659Z,14.53
2018-03-27T10:50:07.161Z,13.57
2018-03-27T10:52:34.675Z,12.30
2018-03-27T10:55:02.939Z,10.60
2018-03-27T10:57:30.901Z,11.20
2018-03-27T10:59:58.424Z,10.97
2018-03-27T11:02:26.691Z,12.00
2018-03-27T11:04:54.944Z,10.20
2018-03-27T11:07:22.476Z,12.97
2018-03-27T11:09:50.015Z,11.10
2018-03-27T11:12:18.143Z,12.37
2018-03-27T11:14:45.685Z,11.87
2018-03-27T11:17:13.978Z,10.60
2018-03-27T11:19:42.300Z,13.77
2018-03-27T11:22:09.880Z,13.50
2018-03-27T11:24:37.442Z,10.63
2018-03-27T11:27:05.000Z,11.30
2018-03-27T11:29:33.219Z,12.67
2018-03-27T11:32:00.880Z,13.00
2018-03-27T11:34:28.374Z,13.17
2018-03-27T11:36:55.855Z,18.60
2018-03-27T11:39:23.356Z,13.07
2018-03-27T11:41:50.894Z,11.37
2018-03-27T11:44:18.406Z,13.50
2018-03-27T11:46:45.858Z,14.57
2018-03-27T11:49:13.382Z,13.03
2018-03-27T11:51:41.030Z,13.60
2018-03-27T11:54:08.483Z,12.93
2018-03-27T11:56:37.534Z,11.40
2018-03-27T11:59:05.023Z,12.57
2018-03-27T12:01:33.350Z,12.63
2018-03-27T12:04:01.589Z,14.13
2018-03-27T12:06:29.161Z,16.80
2018-03-27T12:08:57.300Z,12.50
2018-03-27T12:11:24.846Z,13.60
2018-03-27T12:13:52.370Z,12.13
2018-03-27T12:16:19.880Z,17.20
2018-03-27T12:18:48.266Z,12.90
2018-03-27T12:21:15.777Z,16.80
2018-03-27T12:23:44.017Z,13.80
2018-03-27T12:26:11.534Z,13.73
2018-03-27T12:28:39.279Z,20.53
2018-03-27T12:31:06.786Z,13.43
2018-03-27T12:33:35.417Z,15.97
2018-03-27T12:36:02.973Z,18.23
2018-03-27T12:38:32.177Z,14.50
2018-03-27T12:41:00.557Z,23.17
2018-03-27T12:43:28.117Z,17.17
2018-03-27T12:45:56.133Z,19.53
2018-03-27T12:48:23.625Z,17.17
2018-03-27T12:50:52.132Z,17.87
2018-03-27T12:53:19.643Z,19.37
2018-03-27T12:55:47.201Z,18.00
2018-03-27T12:58:15.208Z,19.67
2018-03-27T13:00:43.513Z,16.07
2018-03-27T13:03:11.016Z,17.27
2018-03-27T13:05:38.568Z,18.73
2018-03-27T13:08:07.067Z,21.20
2018-03-27T13:10:34.534Z,18.07
2018-03-27T13:13:02.042Z,17.17
2018-03-27T13:15:29.772Z,21.80
2018-03-27T13:20:29.855Z,21.40
2018-03-27T13:22:59.167Z,20.07
2018-03-27T13:25:27.464Z,23.40
2018-03-27T13:27:54.979Z,27.43
2018-03-27T13:30:22.580Z,26.53
2018-03-27T13:32:50.194Z,19.60
2018-03-27T13:35:17.691Z,25.33
2018-03-27T13:37:46.009Z,21.07
2018-03-27T13:40:13.764Z,18.63
2018-03-27T13:42:41.258Z,21.03
2018-03-27T13:45:08.782Z,19.13
2018-03-27T13:47:36.261Z,23.77
2018-03-27T13:50:03.993Z,19.40
2018-03-27T13:52:31.465Z,20.50
2018-03-27T13:54:58.967Z,22.37
2018-03-27T13:57:26.554Z,16.13
2018-03-27T13:59:54.112Z,18.23
2018-03-27T14:02:21.873Z,28.33
2018-03-27T14:04:49.413Z,24.03
2018-03-27T14:07:17.539Z,20.90
2018-03-27T14:09:45.033Z,23.37
2018-03-27T14:12:12.832Z,21.73
2018-03-27T14:14:40.384Z,20.37
2018-03-27T14:17:08.876Z,18.67
2018-03-27T14:19:36.406Z,24.03
2018-03-27T14:22:03.981Z,29.80
2018-03-27T14:24:31.699Z,32.30
2018-03-27T14:26:59.266Z,17.80
2018-03-27T14:29:28.219Z,20.60
2018-03-27T14:31:55.713Z,18.83
2018-03-27T14:34:23.185Z,22.33
2018-03-27T14:36:51.494Z,17.53
2018-03-27T14:39:19.180Z,23.07
2018-03-27T14:41:46.683Z,23.17
2018-03-27T14:44:14.180Z,18.90
2018-03-27T14:46:42.693Z,33.40
2018-03-27T14:49:11.453Z,24.63
2018-03-27T14:51:38.923Z,22.67
2018-03-27T14:54:07.228Z,20.23
2018-03-27T14:56:34.727Z,17.17
2018-03-27T14:59:02.428Z,21.20
2018-03-27T15:01:30.729Z,38.43
2018-03-27T15:03:58.282Z,43.37
2018-03-27T15:06:25.779Z,26.77
2018-03-27T15:08:54.087Z,27.00
2018-03-27T15:11:21.655Z,29.17
2018-03-27T15:13:49.205Z,21.27
2018-03-27T15:16:16.733Z,24.63
2018-03-27T15:18:44.253Z,23.23
2018-03-27T15:21:11.808Z,24.03
2018-03-27T15:23:39.290Z,36.20
2018-03-27T15:26:07.614Z,25.50
2018-03-27T15:28:35.141Z,25.90
2018-03-27T15:31:02.629Z,28.30
2018-03-27T15:33:30.177Z,31.50
2018-03-27T15:35:57.690Z,25.53
2018-03-27T15:38:25.931Z,27.73
2018-03-27T15:40:53.578Z,31.67
2018-03-27T15:43:21.840Z,27.80
2018-03-27T15:45:49.357Z,26.67
2018-03-27T15:48:16.884Z,31.33
2018-03-27T15:50:44.430Z,28.70
2018-03-27T15:53:11.944Z,33.83
2018-03-27T15:55:39.454Z,30.07
2018-03-27T15:58:07.399Z,35.20
2018-03-27T16:00:35.100Z,40.83
2018-03-27T16:03:02.723Z,31.80
2018-03-27T16:05:30.330Z,31.60
2018-03-27T16:07:59.323Z,40.40
2018-03-27T16:10:26.822Z,25.17
2018-03-27T16:12:55.182Z,39.23
2018-03-27T16:15:23.459Z,30.43
2018-03-27T16:17:51.055Z,30.40
2018-03-27T16:20:18.576Z,31.97
2018-03-27T16:22:46.109Z,33.53
2018-03-27T16:25:13.693Z,29.50
2018-03-27T16:27:41.372Z,40.27
2018-03-27T16:30:08.971Z,32.13
2018-03-27T16:32:36.909Z,35.47
2018-03-27T16:35:04.449Z,33.27
2018-03-27T16:37:32.021Z,43.27
2018-03-27T16:40:00.321Z,35.30
2018-03-27T16:42:27.874Z,34.10
2018-03-27T16:44:55.452Z,31.20
2018-03-27T16:47:23.066Z,33.47
2018-03-27T16:49:51.254Z,39.60
2018-03-27T16:52:19.461Z,40.00
2018-03-27T16:54:47.644Z,40.73
2018-03-27T16:57:15.869Z,40.93
2018-03-27T16:59:43.622Z,33.17
2018-03-27T17:02:12.145Z,39.57
2018-03-27T17:04:41.508Z,45.03
2018-03-27T17:07:09.015Z,38.33
2018-03-27T17:09:38.467Z,37.47
2018-03-27T17:12:06.933Z,39.87
2018-03-27T17:14:35.197Z,40.00
2018-03-27T17:17:03.235Z,40.53
2018-03-27T17:19:31.648Z,39.50
2018-03-27T17:21:59.179Z,39.40
2018-03-27T17:24:26.674Z,37.67
2018-03-27T17:26:54.175Z,37.53
2018-03-27T17:29:21.762Z,42.13
2018-03-27T17:31:49.901Z,42.43
2018-03-27T17:34:17.440Z,34.57
2018-03-27T17:36:45.898Z,43.40
2018-03-27T17:39:14.250Z,42.30
2018-03-27T17:41:41.850Z,37.57
2018-03-27T17:44:10.101Z,51.67
2018-03-27T17:46:37.937Z,41.43
2018-03-27T17:49:05.458Z,47.37
2018-03-27T17:51:34.468Z,41.17
2018-03-27T17:54:01.991Z,39.20
2018-03-27T17:56:29.451Z,41.47
2018-03-27T17:58:57.084Z,45.43
2018-03-27T18:01:24.585Z,44.77
2018-03-27T18:03:52.156Z,48.70
2018-03-27T18:06:19.636Z,50.40
2018-03-27T18:08:48.577Z,44.23
2018-03-27T18:11:16.550Z,45.80
2018-03-27T18:13:45.032Z,41.13
2018-03-27T18:16:12.912Z,40.63
2018-03-27T18:18:40.411Z,40.77
2018-03-27T18:21:08.771Z,49.83
2018-03-27T18:23:36.360Z,57.53
2018-03-27T18:26:04.101Z,52.20
2018-03-27T18:28:31.827Z,46.73
2018-03-27T18:30:59.779Z,46.77
2018-03-27T18:33:27.545Z,50.97
2018-03-27T18:35:55.006Z,39.80
2018-03-27T18:38:23.988Z,44.60
2018-03-27T18:40:51.512Z,44.80
2018-03-27T18:43:20.016Z,34.23
2018-03-27T18:45:47.987Z,35.50
2018-03-27T18:48:15.601Z,29.60
2018-03-27T18:53:15.102Z,32.47
2018-03-27T18:55:46.430Z,29.50
2018-03-27T18:58:17.581Z,21.70
2018-03-27T19:00:46.674Z,23.00
2018-03-27T19:03:14.479Z,18.00
2018-03-27T19:05:42.161Z,19.70
2018-03-27T19:08:10.585Z,18.20
2018-03-27T19:10:38.896Z,18.30
2018-03-27T19:19:12.236Z,13.47
2018-03-27T19:21:40.512Z,16.17
2018-03-27T19:24:08.145Z,14.97
2018-03-27T19:26:35.620Z,17.27
2018-03-27T19:29:03.141Z,15.33
2018-03-27T19:31:30.662Z,17.57
2018-03-27T19:33:58.184Z,15.50
2018-03-27T19:36:25.715Z,16.17
2018-03-27T19:38:53.282Z,15.07
2018-03-27T19:41:20.792Z,16.97
2018-03-27T19:43:48.327Z,15.70
2018-03-27T19:46:15.787Z,15.00
2018-03-27T19:48:43.320Z,15.77
2018-03-27T19:51:11.591Z,16.57
2018-03-27T19:53:39.893Z,20.07
2018-03-27T19:56:07.415Z,16.37
2018-03-27T19:58:34.946Z,16.90
2018-03-27T20:01:03.349Z,16.47
2018-03-27T20:03:30.859Z,16.30
2018-03-27T20:05:59.320Z,18.07
2018-03-27T20:08:26.884Z,14.60
2018-03-27T20:10:55.176Z,13.13
2018-03-27T20:13:23.450Z,14.30
2018-03-27T20:15:51.129Z,14.50
2018-03-27T20:18:18.698Z,13.53
2018-03-27T20:20:46.212Z,15.03
2018-03-27T20:23:13.724Z,15.97
2018-03-27T20:25:42.065Z,14.23
2018-03-27T20:28:09.601Z,13.97
2018-03-27T20:30:37.162Z,15.00
2018-03-27T20:33:06.533Z,15.33
2018-03-27T20:35:34.150Z,12.67
2018-03-27T20:38:01.762Z,13.40
2018-03-27T20:40:29.260Z,12.77
2018-03-27T20:42:56.829Z,12.23
2018-03-27T20:45:25.360Z,12.37
2018-03-27T20:47:52.835Z,12.80
2018-03-27T20:50:20.346Z,13.43
2018-03-27T20:52:47.832Z,13.00
2018-03-27T20:55:15.555Z,13.23
2018-03-27T20:57:43.046Z,11.67
2018-03-27T21:00:10.877Z,13.53
2018-03-27T21:02:39.248Z,11.50
2018-03-27T21:05:07.480Z,13.10
2018-03-27T21:07:35.033Z,14.23
2018-03-27T21:10:02.574Z,14.03
2018-03-27T21:12:30.100Z,14.00
2018-03-27T21:14:59.008Z,13.90
2018-03-27T21:17:27.980Z,13.43
2018-03-27T21:19:55.509Z,12.73
2018-03-27T21:22:23.074Z,12.87
2018-03-27T21:24:51.285Z,14.53
2018-03-27T21:27:18.840Z,12.57
2018-03-27T21:29:47.025Z,13.60
2018-03-27T21:32:14.658Z,14.03
2018-03-27T21:34:42.928Z,15.00
2018-03-27T21:37:10.465Z,13.77
2018-03-27T21:39:38.717Z,15.10
2018-03-27T21:42:06.308Z,15.23
2018-03-27T21:44:34.645Z,12.10
2018-03-27T21:47:02.187Z,13.63
2018-03-27T21:49:30.410Z,13.37
2018-03-27T21:51:57.938Z,13.47
2018-03-27T21:54:25.562Z,13.53
2018-03-27T21:56:53.018Z,14.67
2018-03-27T21:59:21.294Z,14.30
2018-03-27T22:01:48.851Z,14.90
2018-03-27T22:04:16.359Z,14.97
2018-03-27T22:06:43.914Z,14.50
2018-03-27T22:09:12.196Z,15.97
2018-03-27T22:11:39.668Z,14.57
2018-03-27T22:14:07.988Z,17.63
2018-03-27T22:16:35.548Z,14.37
2018-03-27T22:19:03.020Z,19.23
2018-03-27T22:21:30.538Z,17.40
2018-03-27T22:23:58.168Z,15.07
2018-03-27T22:26:25.647Z,17.83
2018-03-27T22:28:53.135Z,15.20
2018-03-27T22:31:20.701Z,16.73
2018-03-27T22:33:48.269Z,16.90
2018-03-27T22:36:15.823Z,14.03
2018-03-27T22:38:43.328Z,15.00
2018-03-27T22:41:11.023Z,14.47
2018-03-27T22:43:39.773Z,14.67
2018-03-27T22:46:08.162Z,14.80
2018-03-27T22:48:36.251Z,15.73
2018-03-27T22:51:03.888Z,15.87
2018-03-27T22:53:31.428Z,14.50
2018-03-27T22:55:58.916Z,14.97
2018-03-27T22:58:26.426Z,14.50
2018-03-27T23:00:56.546Z,14.70
2018-03-27T23:03:24.113Z,14.33
2018-03-27T23:05:52.442Z,16.77
2018-03-27T23:08:19.949Z,15.30
2018-03-27T23:10:47.482Z,14.77
2018-03-27T23:13:14.969Z,14.10
2018-03-27T23:15:42.757Z,14.57
2018-03-27T23:18:10.234Z,15.90
2018-03-27T23:20:37.759Z,16.00
2018-03-27T23:23:05.296Z,15.47
2018-03-27T23:25:33.675Z,15.63
2018-03-27T23:28:02.119Z,17.10
2018-03-27T23:30:30.390Z,15.20
2018-03-27T23:32:58.691Z,17.97
2018-03-27T23:35:27.068Z,17.97
2018-03-27T23:37:54.549Z,16.83
2018-03-27T23:40:22.065Z,15.97
2018-03-27T23:42:49.602Z,17.93
2018-03-27T23:45:17.115Z,17.07
2018-03-27T23:47:45.382Z,16.90
2018-03-27T23:50:12.874Z,18.30
2018-03-27T23:52:41.133Z,18.97
2018-03-27T23:55:09.400Z,15.87
2018-03-27T23:57:36.891Z,19.57
